createdAt,value
2022-10-16T00:00:52.219Z,14.00
2022-10-16T00:03:40.789Z,14.00
2022-10-16T00:06:32.293Z,14.00
2022-10-16T00:09:19.717Z,14.00
2022-10-16T00:12:08.019Z,13.90
2022-10-16T00:14:55.673Z,14.00
2022-10-16T00:17:42.749Z,13.90
2022-10-16T00:20:32.124Z,14.00
2022-10-16T00:23:19.776Z,14.00
2022-10-16T00:26:09.914Z,14.00
2022-10-16T00:28:57.377Z,14.00
2022-10-16T00:31:44.803Z,14.00
2022-10-16T00:34:32.463Z,13.90
2022-10-16T00:37:19.925Z,14.00
2022-10-16T00:40:07.950Z,13.90
2022-10-16T00:42:55.118Z,14.00
2022-10-16T00:45:42.704Z,13.90
2022-10-16T00:48:30.595Z,13.90
2022-10-16T00:51:22.740Z,14.00
2022-10-16T00:54:16.373Z,13.90
2022-10-16T00:57:06.749Z,14.00
2022-10-16T00:59:55.025Z,13.90
2022-10-16T01:02:42.730Z,13.90
2022-10-16T01:05:36.922Z,13.90
2022-10-16T01:08:34.963Z,13.90
2022-10-16T01:11:27.006Z,13.90
2022-10-16T01:14:31.212Z,13.90
2022-10-16T01:17:35.661Z,13.90
2022-10-16T01:20:35.340Z,13.80
2022-10-16T01:23:25.612Z,13.80
2022-10-16T01:26:29.680Z,13.80
2022-10-16T01:29:26.336Z,13.90
2022-10-16T01:32:19.157Z,13.90
2022-10-16T01:35:14.813Z,13.90
2022-10-16T01:38:15.142Z,13.90
2022-10-16T01:41:09.012Z,13.90
2022-10-16T01:44:02.964Z,13.80
2022-10-16T01:46:53.086Z,13.80
2022-10-16T01:49:41.905Z,13.70
2022-10-16T01:52:30.927Z,13.80
2022-10-16T01:55:25.528Z,13.80
2022-10-16T01:58:15.412Z,13.80
2022-10-16T02:01:05.186Z,13.70
2022-10-16T02:03:57.353Z,13.70
2022-10-16T02:06:44.644Z,13.70
2022-10-16T02:09:34.890Z,13.70
2022-10-16T02:12:31.836Z,13.70
2022-10-16T02:15:19.058Z,13.70
2022-10-16T02:18:08.146Z,13.60
2022-10-16T02:21:03.179Z,13.60
2022-10-16T02:24:25.176Z,13.60
2022-10-16T02:27:21.967Z,13.60
2022-10-16T02:30:49.006Z,13.50
2022-10-16T02:36:55.896Z,13.60
2022-10-16T02:39:43.258Z,13.50
2022-10-16T02:42:35.135Z,13.40
2022-10-16T02:45:23.831Z,13.40
2022-10-16T02:48:11.269Z,13.30
2022-10-16T02:50:58.736Z,13.40
2022-10-16T02:53:46.168Z,13.40
2022-10-16T02:56:33.312Z,13.40
2022-10-16T02:59:20.845Z,13.40
2022-10-16T03:02:08.314Z,13.40
2022-10-16T03:04:55.578Z,13.30
2022-10-16T03:07:42.864Z,13.40
2022-10-16T03:10:30.439Z,13.30
2022-10-16T03:13:17.919Z,13.30
2022-10-16T03:16:05.572Z,13.30
2022-10-16T03:21:56.725Z,13.30
2022-10-16T03:24:44.452Z,13.30
2022-10-16T03:27:31.979Z,13.20
2022-10-16T03:30:19.295Z,13.20
2022-10-16T03:33:06.891Z,13.30
2022-10-16T03:35:55.108Z,13.20
2022-10-16T03:38:42.587Z,13.20
2022-10-16T03:41:36.795Z,13.20
2022-10-16T03:44:24.013Z,13.20
2022-10-16T03:47:11.432Z,13.20
2022-10-16T03:49:58.836Z,13.20
2022-10-16T03:52:46.241Z,13.10
2022-10-16T03:55:33.665Z,13.10
2022-10-16T03:58:21.227Z,13.10
2022-10-16T04:01:08.762Z,13.00
2022-10-16T04:03:56.191Z,13.10
2022-10-16T04:06:43.250Z,13.10
2022-10-16T04:09:30.690Z,13.10
2022-10-16T04:12:17.820Z,13.20
2022-10-16T04:15:05.280Z,13.10
2022-10-16T04:17:53.286Z,13.10
2022-10-16T04:20:42.070Z,13.10
2022-10-16T04:23:29.468Z,13.10
2022-10-16T04:26:16.882Z,13.10
2022-10-16T04:29:04.396Z,13.20
2022-10-16T04:31:51.942Z,13.20
2022-10-16T04:34:40.566Z,13.20
2022-10-16T04:37:28.888Z,13.20
2022-10-16T04:40:16.760Z,13.20
2022-10-16T04:43:05.211Z,13.20
2022-10-16T04:45:53.044Z,13.20
2022-10-16T04:48:40.424Z,13.20
2022-10-16T04:51:28.648Z,13.20
2022-10-16T04:54:15.935Z,13.20
2022-10-16T04:57:03.508Z,13.30
2022-10-16T04:59:50.629Z,13.30
2022-10-16T05:02:38.131Z,13.30
2022-10-16T05:05:26.044Z,13.20
2022-10-16T05:08:15.263Z,13.20
2022-10-16T05:11:02.911Z,13.10
2022-10-16T05:13:53.536Z,13.20
2022-10-16T05:16:43.304Z,13.20
2022-10-16T05:19:30.730Z,13.20
2022-10-16T05:22:18.876Z,13.20
2022-10-16T05:25:06.392Z,13.10
2022-10-16T05:27:53.593Z,13.00
2022-10-16T05:30:40.980Z,13.10
2022-10-16T05:33:28.512Z,13.10
2022-10-16T05:36:16.054Z,13.10
2022-10-16T05:39:04.445Z,13.10
2022-10-16T05:41:51.845Z,13.10
2022-10-16T05:44:39.253Z,13.10
2022-10-16T05:47:27.229Z,13.10
2022-10-16T05:50:15.121Z,13.20
2022-10-16T05:53:02.518Z,13.20
2022-10-16T05:55:53.781Z,13.20
2022-10-16T05:58:45.518Z,13.20
2022-10-16T06:01:33.591Z,13.20
2022-10-16T06:04:20.687Z,13.20
2022-10-16T06:07:07.766Z,13.20
2022-10-16T06:09:55.246Z,13.20
2022-10-16T06:12:42.336Z,13.10
2022-10-16T06:15:29.918Z,13.10
2022-10-16T06:18:17.024Z,13.10
2022-10-16T06:21:13.658Z,13.20
2022-10-16T06:24:01.297Z,13.10
2022-10-16T06:26:48.414Z,13.10
2022-10-16T06:29:35.836Z,13.10
2022-10-16T06:32:23.272Z,13.10
2022-10-16T06:35:10.746Z,13.10
2022-10-16T06:37:58.253Z,13.20
2022-10-16T06:40:45.762Z,13.20
2022-10-16T06:43:33.604Z,13.20
2022-10-16T06:46:23.678Z,13.30
2022-10-16T06:49:11.547Z,13.30
2022-10-16T06:51:58.959Z,13.30
2022-10-16T06:54:46.416Z,13.20
2022-10-16T06:57:34.149Z,13.30
2022-10-16T07:00:21.463Z,13.30
2022-10-16T07:03:08.641Z,13.30
2022-10-16T07:05:55.761Z,13.30
2022-10-16T07:08:44.946Z,13.30
2022-10-16T07:11:33.055Z,13.30
2022-10-16T07:14:22.211Z,13.30
2022-10-16T07:17:09.755Z,13.30
2022-10-16T07:19:57.261Z,13.30
2022-10-16T07:22:44.420Z,13.30
2022-10-16T07:25:31.466Z,13.30
2022-10-16T07:28:19.002Z,13.40
2022-10-16T07:31:11.701Z,13.40
2022-10-16T07:34:00.595Z,13.50
2022-10-16T07:36:51.770Z,13.50
2022-10-16T07:39:39.211Z,13.80
2022-10-16T07:42:28.022Z,14.00
2022-10-16T07:45:15.543Z,14.10
2022-10-16T07:48:02.617Z,14.20
2022-10-16T07:50:49.870Z,14.20
2022-10-16T07:53:37.026Z,14.20
2022-10-16T07:56:24.932Z,14.40
2022-10-16T07:59:12.464Z,14.50
2022-10-16T08:01:59.900Z,14.50
2022-10-16T08:04:48.345Z,14.60
2022-10-16T08:07:35.748Z,14.70
2022-10-16T08:10:25.444Z,14.80
2022-10-16T08:13:15.963Z,14.80
2022-10-16T08:16:08.666Z,14.90
2022-10-16T08:18:56.093Z,14.70
2022-10-16T08:21:43.512Z,15.00
2022-10-16T08:24:32.156Z,14.80
2022-10-16T08:27:19.636Z,14.90
2022-10-16T08:33:23.594Z,15.30
2022-10-16T08:36:11.756Z,15.40
2022-10-16T08:38:59.196Z,15.30
2022-10-16T08:42:16.998Z,15.50
2022-10-16T08:45:27.674Z,15.50
2022-10-16T08:48:26.923Z,15.50
2022-10-16T08:51:24.904Z,15.40
2022-10-16T08:54:29.887Z,15.60
2022-10-16T08:57:23.090Z,15.20
2022-10-16T09:00:22.581Z,15.30
2022-10-16T09:03:31.333Z,15.40
2022-10-16T09:06:45.926Z,15.70
2022-10-16T09:10:00.957Z,15.80
2022-10-16T09:12:54.280Z,15.60
2022-10-16T09:15:55.623Z,15.50
2022-10-16T09:19:12.992Z,15.60
2022-10-16T09:22:10.791Z,15.90
2022-10-16T09:25:02.269Z,16.10
2022-10-16T09:27:52.293Z,15.80
2022-10-16T09:30:40.530Z,15.60
2022-10-16T09:33:36.225Z,15.80
2022-10-16T09:36:26.153Z,15.90
2022-10-16T09:39:13.625Z,15.70
2022-10-16T09:42:01.682Z,15.80
2022-10-16T09:44:51.697Z,16.10
2022-10-16T09:47:43.511Z,16.20
2022-10-16T09:50:30.698Z,16.40
2022-10-16T09:53:20.582Z,16.90
2022-10-16T09:56:10.447Z,16.90
2022-10-16T09:59:09.717Z,17.00
2022-10-16T10:01:57.509Z,17.00
2022-10-16T10:04:55.685Z,17.30
2022-10-16T10:07:44.747Z,17.20
2022-10-16T10:10:34.217Z,17.00
2022-10-16T10:13:23.783Z,16.80
2022-10-16T10:16:10.861Z,16.90
2022-10-16T10:19:01.734Z,16.80
2022-10-16T10:21:50.304Z,16.80
2022-10-16T10:24:39.183Z,17.40
2022-10-16T10:27:49.697Z,17.10
2022-10-16T10:34:12.328Z,17.30
2022-10-16T10:37:07.145Z,17.70
2022-10-16T10:40:09.180Z,18.20
2022-10-16T10:42:57.551Z,18.30
2022-10-16T10:45:48.616Z,18.20
2022-10-16T10:48:51.178Z,18.60
2022-10-16T10:52:00.097Z,18.30
2022-10-16T10:55:16.891Z,18.50
2022-10-16T10:58:16.234Z,18.50
2022-10-16T11:01:14.421Z,18.50
2022-10-16T11:07:06.231Z,18.00
2022-10-16T11:13:36.004Z,18.20
2022-10-16T11:16:29.646Z,18.40
2022-10-16T11:19:35.291Z,18.90
2022-10-16T11:22:37.484Z,19.40
2022-10-16T11:25:33.605Z,19.30
2022-10-16T11:31:22.866Z,20.00
2022-10-16T11:34:25.041Z,19.20
2022-10-16T11:37:32.153Z,19.40
2022-10-16T11:40:38.661Z,18.80
2022-10-16T11:43:42.254Z,19.20
2022-10-16T11:46:32.032Z,19.50
2022-10-16T11:49:26.322Z,19.50
2022-10-16T11:52:24.219Z,19.40
2022-10-16T11:55:22.333Z,19.20
2022-10-16T11:58:46.474Z,19.60
2022-10-16T12:01:40.071Z,19.50
2022-10-16T12:04:40.253Z,20.10
2022-10-16T12:07:56.177Z,20.40
2022-10-16T12:10:48.296Z,19.50
2022-10-16T12:13:38.739Z,19.30
2022-10-16T12:16:26.205Z,19.40
2022-10-16T12:19:18.236Z,19.70
2022-10-16T12:22:19.233Z,19.00
2022-10-16T12:25:20.089Z,19.20
2022-10-16T12:28:16.165Z,19.50
2022-10-16T12:31:06.449Z,19.40
2022-10-16T12:34:02.829Z,19.30
2022-10-16T12:36:50.837Z,19.90
2022-10-16T12:39:39.003Z,20.10
2022-10-16T12:45:32.411Z,20.00
2022-10-16T12:48:29.106Z,20.00
2022-10-16T12:51:36.889Z,20.50
2022-10-16T12:54:31.168Z,19.80
2022-10-16T12:57:21.446Z,20.30
2022-10-16T13:00:14.712Z,20.70
2022-10-16T13:03:02.111Z,19.80
2022-10-16T13:06:07.803Z,19.60
2022-10-16T13:09:17.060Z,19.50
2022-10-16T13:12:23.481Z,19.60
2022-10-16T13:15:39.714Z,19.10
2022-10-16T13:18:39.362Z,19.30
2022-10-16T13:21:45.441Z,19.60
2022-10-16T13:25:00.607Z,19.20
2022-10-16T13:28:06.674Z,19.20
2022-10-16T13:30:57.071Z,19.20
2022-10-16T13:33:49.878Z,19.20
2022-10-16T13:36:45.833Z,18.80
2022-10-16T13:39:33.841Z,18.70
2022-10-16T13:42:29.301Z,18.50
2022-10-16T13:45:24.824Z,18.40
2022-10-16T13:48:26.249Z,18.60
2022-10-16T13:51:15.570Z,18.40
2022-10-16T13:54:02.807Z,18.30
2022-10-16T13:57:03.168Z,18.30
2022-10-16T13:59:56.871Z,18.10
2022-10-16T14:02:44.496Z,18.00
2022-10-16T14:05:32.043Z,17.90
2022-10-16T14:08:19.598Z,17.90
2022-10-16T14:11:07.061Z,18.00
2022-10-16T14:13:55.339Z,18.00
2022-10-16T14:19:39.816Z,17.70
2022-10-16T14:22:38.607Z,17.80
2022-10-16T14:25:29.692Z,17.80
2022-10-16T14:28:23.959Z,17.80
2022-10-16T14:31:20.948Z,17.60
2022-10-16T14:34:28.384Z,17.80
2022-10-16T14:37:29.818Z,17.40
2022-10-16T14:40:17.578Z,17.60
2022-10-16T14:43:06.184Z,17.60
2022-10-16T14:45:56.794Z,17.60
2022-10-16T14:48:47.634Z,17.60
2022-10-16T14:51:35.192Z,17.40
2022-10-16T14:54:22.450Z,17.40
2022-10-16T14:57:21.983Z,17.40
2022-10-16T15:00:22.343Z,17.40
2022-10-16T15:03:09.863Z,17.40
2022-10-16T15:05:57.012Z,17.30
2022-10-16T15:08:44.698Z,17.20
2022-10-16T15:11:34.342Z,17.20
2022-10-16T15:14:22.203Z,17.20
2022-10-16T15:17:12.221Z,17.10
2022-10-16T15:20:00.126Z,17.10
2022-10-16T15:22:47.672Z,17.20
2022-10-16T15:25:40.725Z,17.00
2022-10-16T15:28:28.323Z,17.10
2022-10-16T15:31:15.789Z,17.10
2022-10-16T15:34:06.812Z,17.00
2022-10-16T15:36:56.148Z,17.00
2022-10-16T15:39:43.646Z,17.00
2022-10-16T15:42:31.159Z,17.00
2022-10-16T15:45:20.142Z,17.00
2022-10-16T15:48:11.241Z,17.00
2022-10-16T15:50:58.880Z,16.90
2022-10-16T15:53:47.351Z,16.90
2022-10-16T15:56:34.620Z,16.80
2022-10-16T15:59:22.085Z,16.80
2022-10-16T16:02:10.348Z,16.90
2022-10-16T16:04:58.029Z,16.90
2022-10-16T16:07:45.567Z,16.70
2022-10-16T16:10:33.097Z,16.70
2022-10-16T16:13:20.599Z,16.70
2022-10-16T16:16:13.352Z,16.60
2022-10-16T16:19:00.897Z,16.50
2022-10-16T16:21:49.418Z,16.40
2022-10-16T16:24:37.026Z,16.40
2022-10-16T16:27:26.214Z,16.40
2022-10-16T16:30:18.366Z,16.40
2022-10-16T16:33:07.465Z,16.40
2022-10-16T16:36:03.391Z,16.20
2022-10-16T16:38:50.664Z,16.10
2022-10-16T16:41:38.195Z,16.00
2022-10-16T16:44:25.964Z,15.90
2022-10-16T16:47:13.408Z,15.90
2022-10-16T16:50:05.640Z,15.90
2022-10-16T16:52:53.104Z,15.90
2022-10-16T16:55:40.618Z,15.90
2022-10-16T16:58:28.141Z,15.80
2022-10-16T17:01:19.970Z,15.80
2022-10-16T17:04:08.955Z,15.80
2022-10-16T17:06:56.901Z,15.90
2022-10-16T17:09:44.182Z,15.90
2022-10-16T17:12:31.845Z,15.80
2022-10-16T17:15:19.139Z,15.80
2022-10-16T17:18:06.361Z,15.80
2022-10-16T17:20:53.581Z,15.80
2022-10-16T17:23:41.140Z,15.80
2022-10-16T17:26:29.168Z,15.80
2022-10-16T17:29:18.695Z,15.70
2022-10-16T17:32:06.007Z,15.70
2022-10-16T17:34:53.638Z,15.80
2022-10-16T17:37:42.092Z,15.80
2022-10-16T17:40:29.180Z,15.70
2022-10-16T17:43:16.657Z,15.70
2022-10-16T17:46:04.478Z,15.80
2022-10-16T17:48:54.507Z,15.70
2022-10-16T17:51:42.425Z,15.70
2022-10-16T17:54:29.865Z,15.70
2022-10-16T17:57:17.369Z,15.70
2022-10-16T18:00:06.185Z,15.70
2022-10-16T18:02:53.685Z,15.50
2022-10-16T18:05:41.151Z,15.60
2022-10-16T18:08:28.908Z,15.60
2022-10-16T18:11:16.488Z,15.60
2022-10-16T18:14:04.275Z,15.60
2022-10-16T18:16:53.020Z,15.60
2022-10-16T18:19:40.206Z,15.60
2022-10-16T18:22:29.118Z,15.60
2022-10-16T18:25:16.659Z,15.50
2022-10-16T18:28:22.402Z,15.50
2022-10-16T18:31:17.388Z,15.50
2022-10-16T18:34:05.501Z,15.50
2022-10-16T18:36:55.162Z,15.50
2022-10-16T18:39:47.367Z,15.50
2022-10-16T18:42:34.471Z,15.60
2022-10-16T18:45:22.012Z,15.70
2022-10-16T18:48:09.128Z,15.60
2022-10-16T18:51:08.705Z,15.70
2022-10-16T18:54:00.205Z,15.60
2022-10-16T18:56:47.347Z,15.70
2022-10-16T18:59:34.545Z,15.60
2022-10-16T19:05:17.841Z,15.50
2022-10-16T19:08:05.561Z,15.50
2022-10-16T19:10:53.066Z,15.50
2022-10-16T19:13:40.220Z,15.50
2022-10-16T19:16:33.763Z,15.50
2022-10-16T19:19:22.543Z,15.40
2022-10-16T19:22:17.320Z,15.40
2022-10-16T19:25:05.067Z,15.40
2022-10-16T19:27:52.255Z,15.30
2022-10-16T19:30:40.650Z,15.30
2022-10-16T19:33:27.760Z,15.30
2022-10-16T19:36:18.249Z,15.30
2022-10-16T19:39:10.455Z,15.30
2022-10-16T19:41:57.920Z,15.30
2022-10-16T19:44:45.338Z,15.20
2022-10-16T19:47:32.809Z,15.20
2022-10-16T19:50:20.332Z,15.30
2022-10-16T19:53:07.619Z,15.20
2022-10-16T19:55:55.857Z,15.20
2022-10-16T19:58:44.397Z,15.20
2022-10-16T20:01:32.333Z,15.20
2022-10-16T20:04:19.928Z,15.20
2022-10-16T20:07:07.405Z,15.10
2022-10-16T20:09:54.984Z,15.10
2022-10-16T20:12:42.741Z,15.10
2022-10-16T20:15:29.947Z,15.00
2022-10-16T20:18:17.827Z,15.00
2022-10-16T20:21:17.229Z,15.00
2022-10-16T20:24:06.363Z,15.00
2022-10-16T20:26:53.843Z,15.00
2022-10-16T20:29:41.276Z,15.10
2022-10-16T20:32:28.482Z,15.10
2022-10-16T20:35:16.234Z,15.10
2022-10-16T20:38:04.095Z,15.10
2022-10-16T20:40:51.555Z,15.10
2022-10-16T20:43:47.711Z,15.20
2022-10-16T20:46:35.247Z,15.20
2022-10-16T20:49:36.136Z,15.20
2022-10-16T20:52:27.351Z,15.20
2022-10-16T20:55:16.207Z,15.30
2022-10-16T20:58:05.124Z,15.20
2022-10-16T21:00:52.240Z,15.20
2022-10-16T21:03:39.925Z,15.30
2022-10-16T21:06:27.992Z,15.30
2022-10-16T21:09:15.505Z,15.30
2022-10-16T21:12:03.020Z,15.20
2022-10-16T21:15:09.836Z,15.10
2022-10-16T21:17:57.982Z,15.20
2022-10-16T21:20:45.470Z,15.20
2022-10-16T21:23:33.832Z,15.10
2022-10-16T21:26:29.127Z,15.10
2022-10-16T21:29:16.919Z,15.10
2022-10-16T21:32:04.837Z,15.10
2022-10-16T21:34:52.337Z,15.10
2022-10-16T21:37:39.815Z,15.10
2022-10-16T21:40:29.362Z,15.00
2022-10-16T21:43:16.535Z,15.10
2022-10-16T21:46:04.015Z,15.10
2022-10-16T21:48:55.863Z,15.10
2022-10-16T21:51:46.221Z,15.10
2022-10-16T21:54:33.666Z,15.10
2022-10-16T21:57:21.091Z,15.00
2022-10-16T22:00:09.943Z,15.00
2022-10-16T22:02:58.539Z,15.00
2022-10-16T22:05:46.021Z,15.00
2022-10-16T22:08:34.965Z,15.00
2022-10-16T22:11:26.369Z,15.10
2022-10-16T22:14:16.488Z,15.00
2022-10-16T22:17:03.626Z,15.00
2022-10-16T22:19:51.165Z,15.10
2022-10-16T22:22:38.581Z,15.00
2022-10-16T22:25:25.787Z,15.00
2022-10-16T22:28:13.316Z,15.00
2022-10-16T22:31:09.854Z,15.00
2022-10-16T22:34:00.997Z,15.10
2022-10-16T22:36:49.977Z,15.00
2022-10-16T22:39:37.407Z,15.00
2022-10-16T22:42:25.053Z,15.00
2022-10-16T22:45:12.232Z,15.00
2022-10-16T22:48:00.068Z,15.00
2022-10-16T22:50:48.588Z,15.10
2022-10-16T22:53:36.173Z,15.10
2022-10-16T22:56:23.700Z,15.00
2022-10-16T22:59:11.442Z,15.10
2022-10-16T23:01:58.623Z,15.00
2022-10-16T23:04:46.053Z,15.00
2022-10-16T23:07:33.592Z,15.00
2022-10-16T23:10:24.827Z,15.10
2022-10-16T23:13:12.725Z,15.00
2022-10-16T23:16:00.257Z,15.00
2022-10-16T23:18:49.175Z,15.00
2022-10-16T23:21:36.653Z,15.00
2022-10-16T23:24:23.738Z,15.00
2022-10-16T23:32:10.044Z,15.00
2022-10-16T23:34:57.606Z,15.00
2022-10-16T23:37:45.119Z,15.00
2022-10-16T23:40:32.564Z,15.00
2022-10-16T23:43:20.122Z,15.00
2022-10-16T23:46:09.762Z,15.00
2022-10-16T23:48:57.146Z,14.90
2022-10-16T23:51:44.715Z,14.90
2022-10-16T23:54:32.120Z,15.00
